Hlavní strana
METAR-TAF:

METAR-TAF

Letiště :

Rostov na Donu, Rusko

zeměpisná šířka: 47-29-38N, zeměpisná délka: 039-55-29E, výška: 65 m

Aktuální stav počasí

Zpráva byla vytvořena před 22 minutami, v 19:30 UTC
Severovýchodní vítr 10 kt
Teplota 26°C
Vlhkost vzduchu 42%
Tlak 1018 hPa
Viditelnost 10 km a více
Žádná oblačnost pod 1500 m, nevyskytují se cumulonimby.

METAR: URRP 251930Z 04005MPS CAVOK 26/12 Q1018 R05/CLRD70 NOSIG RMK QFE758/1011

Čas: 23:52 (19:52 UTC)

Předpověď počasí

Zpráva byla vytvořena před 2 hodinami a 57 minutami, v 16:55 UTC
Předpověď platná od 25 v 18 UTC do 26 v 18 UTC
Severovýchodní vítr 6 kt s nárazy do 19 kt
Viditelnost 10 km a více
Polojasno ve výšce 3000 ft, Cumulonimbus.
Dočasný
od 25 v 18 UTC do 26 v 18 UTC
Jihovýchodní vítr 12 kt s nárazy do 23 kt

TAF: URRP 251655Z 2518/2618 04003G10MPS 9999 SCT030CB TX33/2612Z TN20/2602Z TEMPO 2518/2618 13006G12MPS

Stav a předpovědi počasí z více než 4 000 letišť (zprávy METAR a TAF).

Červené a žluté tečky na mapě představují dostupné meteorologické stanice.

Když kurzor umístíte na tečku, zobrazí se název stanice.

Pak kliknutím zobrazíte stav a předpověď počasí.

Chcete-li změnit mapu, kliknutím na zelené tlačítko se znaménkem +mapu přiblížíte, kliknutím na zelené tlačítko se znaménkem – mapu oddálíte a kliknutím na zelené šipky přejdete na sousední mapy.


METAR-TAF: